Port Lions, Alaska
Current Conditions -  °F | °C
As of 1:53 AM on Thursday 23 Oct 2014 (Local Time) from PADQ Reporting Station
Clear Clear  
Wind Chill: 32°   Ceiling: Unl
Heat Index: 40°   Visibility: 10mi
Dew Point: 29°   Wind: 15mph
Humidity: 65%   Direction: 300°WNW
Pressure: 29.54"   Gusts: NA
Location:  57.87°N, 152.88°W
Report Text: PADQ 230953Z 30013KT 10SM CLR 04/M02 A2954 RMK AO2 SLP003 T00441017
Loading
Personal Weather Stations






























Interactive Weather Map
Tropical Storm Tracking
New forecast layout! Learn more

10-Day Weather Forecast

Advertisements
Track Severe Weather on mobile